createdAt,value
2023-03-07T00:00:18.241Z,20.47
2023-03-07T00:02:51.391Z,20.53
2023-03-07T00:05:20.586Z,18.40
2023-03-07T00:07:49.340Z,22.37
2023-03-07T00:10:20.024Z,17.73
2023-03-07T00:12:48.931Z,23.43
2023-03-07T00:15:17.915Z,22.43
2023-03-07T00:17:46.574Z,21.17
2023-03-07T00:20:15.705Z,22.97
2023-03-07T00:22:46.927Z,22.30
2023-03-07T00:25:16.403Z,21.13
2023-03-07T00:27:46.520Z,22.63
2023-03-07T00:30:15.363Z,23.87
2023-03-07T00:32:44.035Z,24.03
2023-03-07T00:35:12.778Z,23.67
2023-03-07T00:37:41.507Z,25.07
2023-03-07T00:40:11.768Z,24.30
2023-03-07T00:42:40.469Z,23.97
2023-03-07T00:45:11.640Z,23.13
2023-03-07T00:47:40.230Z,24.90
2023-03-07T00:50:09.545Z,25.73
2023-03-07T00:52:38.329Z,23.50
2023-03-07T00:55:07.970Z,23.80
2023-03-07T00:57:36.622Z,24.23
2023-03-07T01:00:06.239Z,25.00
2023-03-07T01:02:36.665Z,25.17
2023-03-07T01:05:06.423Z,25.13
2023-03-07T01:07:35.065Z,23.77
2023-03-07T01:10:05.520Z,26.27
2023-03-07T01:12:34.108Z,21.70
2023-03-07T01:15:05.536Z,23.40
2023-03-07T01:17:36.263Z,22.43
2023-03-07T01:20:07.243Z,24.93
2023-03-07T01:22:37.094Z,24.83
2023-03-07T01:25:08.092Z,26.77
2023-03-07T01:27:37.202Z,25.47
2023-03-07T01:30:06.737Z,24.60
2023-03-07T01:32:38.062Z,25.23
2023-03-07T01:35:07.509Z,22.50
2023-03-07T01:37:36.207Z,25.17
2023-03-07T01:40:08.049Z,22.70
2023-03-07T01:42:36.610Z,21.87
2023-03-07T01:45:08.863Z,21.60
2023-03-07T01:47:47.726Z,21.97
2023-03-07T01:50:18.896Z,24.80
2023-03-07T01:52:50.958Z,24.80
2023-03-07T01:55:22.456Z,22.53
2023-03-07T01:57:55.707Z,23.80
2023-03-07T02:00:28.874Z,22.67
2023-03-07T02:03:05.771Z,21.80
2023-03-07T02:05:39.198Z,23.87
2023-03-07T02:08:09.941Z,22.67
2023-03-07T02:10:39.174Z,21.43
2023-03-07T02:13:08.061Z,21.60
2023-03-07T02:15:37.803Z,20.27
2023-03-07T02:18:08.920Z,20.60
2023-03-07T02:20:43.898Z,21.67
2023-03-07T02:23:20.981Z,20.30
2023-03-07T02:25:58.274Z,20.87
2023-03-07T02:28:29.957Z,20.77
2023-03-07T02:31:00.804Z,22.20
2023-03-07T02:33:32.773Z,22.67
2023-03-07T02:36:09.395Z,21.07
2023-03-07T02:38:42.948Z,20.57
2023-03-07T02:41:15.162Z,21.57
2023-03-07T02:43:45.239Z,24.27
2023-03-07T02:46:14.123Z,19.50
2023-03-07T02:48:42.677Z,23.27
2023-03-07T02:51:12.160Z,23.33
2023-03-07T02:53:41.614Z,20.93
2023-03-07T02:56:10.152Z,22.60
2023-03-07T02:58:38.740Z,22.70
2023-03-07T03:01:09.118Z,20.53
2023-03-07T03:03:38.121Z,21.10
2023-03-07T03:06:07.114Z,22.70
2023-03-07T03:08:35.708Z,22.93
2023-03-07T03:11:04.276Z,21.77
2023-03-07T03:13:32.931Z,20.80
2023-03-07T03:16:01.740Z,21.90
2023-03-07T03:18:32.795Z,21.97
2023-03-07T03:21:09.274Z,24.90
2023-03-07T03:23:38.178Z,24.90
2023-03-07T03:26:09.861Z,22.77
2023-03-07T03:28:39.586Z,22.93
2023-03-07T03:31:10.550Z,24.30
2023-03-07T03:33:44.136Z,23.77
2023-03-07T03:36:16.351Z,24.67
2023-03-07T03:38:47.768Z,27.17
2023-03-07T03:41:17.152Z,25.67
2023-03-07T03:43:47.477Z,23.97
2023-03-07T03:46:19.624Z,25.57
2023-03-07T03:48:54.475Z,25.97
2023-03-07T03:51:26.383Z,24.53
2023-03-07T03:53:57.727Z,24.07
2023-03-07T03:56:28.290Z,24.10
2023-03-07T03:58:58.676Z,24.07
2023-03-07T04:01:29.631Z,25.20
2023-03-07T04:04:00.737Z,24.97
2023-03-07T04:06:31.504Z,29.17
2023-03-07T04:09:00.903Z,25.90
2023-03-07T04:11:29.562Z,28.80
2023-03-07T04:13:59.419Z,27.03
2023-03-07T04:16:28.080Z,26.07
2023-03-07T04:19:01.506Z,23.93
2023-03-07T04:21:30.325Z,25.10
2023-03-07T04:24:00.694Z,22.77
2023-03-07T04:26:32.003Z,25.27
2023-03-07T04:29:00.657Z,25.20
2023-03-07T04:31:40.897Z,23.43
2023-03-07T04:34:12.957Z,26.83
2023-03-07T04:36:41.862Z,23.43
2023-03-07T04:39:10.699Z,24.70
2023-03-07T04:41:39.790Z,26.83
2023-03-07T04:44:15.539Z,25.40
2023-03-07T04:46:44.703Z,22.97
2023-03-07T04:49:15.064Z,24.33
2023-03-07T04:51:44.162Z,23.43
2023-03-07T04:54:15.147Z,23.73
2023-03-07T04:56:44.278Z,23.23
2023-03-07T04:59:13.652Z,23.97
2023-03-07T05:01:43.097Z,22.63
2023-03-07T05:04:11.886Z,23.07
2023-03-07T05:06:42.469Z,25.17
2023-03-07T05:09:11.465Z,21.60
2023-03-07T05:11:40.695Z,25.23
2023-03-07T05:14:10.103Z,25.03
2023-03-07T05:16:38.927Z,21.83
2023-03-07T05:19:08.108Z,24.00
2023-03-07T05:21:40.022Z,21.67
2023-03-07T05:24:10.511Z,24.00
2023-03-07T05:26:40.780Z,23.13
2023-03-07T05:29:09.604Z,21.57
2023-03-07T05:31:38.428Z,24.27
2023-03-07T05:34:10.916Z,22.63
2023-03-07T05:36:41.147Z,22.37
2023-03-07T05:39:12.438Z,21.27
2023-03-07T05:41:40.991Z,20.43
2023-03-07T05:44:10.976Z,22.07
2023-03-07T05:46:39.912Z,21.07
2023-03-07T05:49:08.454Z,22.73
2023-03-07T05:51:37.146Z,20.87
2023-03-07T05:54:06.241Z,19.27
2023-03-07T05:56:37.869Z,20.90
2023-03-07T05:59:08.072Z,20.03
2023-03-07T06:01:37.135Z,20.97
2023-03-07T06:04:05.988Z,21.47
2023-03-07T06:06:35.013Z,20.33
2023-03-07T06:09:05.856Z,20.20
2023-03-07T06:11:36.582Z,23.37
2023-03-07T06:14:05.659Z,19.10
2023-03-07T06:16:34.420Z,22.40
2023-03-07T06:19:04.788Z,20.87
2023-03-07T06:21:33.727Z,18.77
2023-03-07T06:24:02.536Z,19.40
2023-03-07T06:26:31.086Z,26.53
2023-03-07T06:29:01.630Z,22.57
2023-03-07T06:31:30.171Z,20.73
2023-03-07T06:33:59.371Z,21.40
2023-03-07T06:36:28.887Z,19.00
2023-03-07T06:39:01.272Z,21.93
2023-03-07T06:41:30.358Z,21.87
2023-03-07T06:44:02.799Z,20.23
2023-03-07T06:46:33.832Z,20.20
2023-03-07T06:49:07.804Z,19.40
2023-03-07T06:51:38.125Z,22.63
2023-03-07T06:54:08.281Z,19.03
2023-03-07T06:56:37.024Z,21.23
2023-03-07T06:59:07.060Z,22.53
2023-03-07T07:01:40.788Z,22.03
2023-03-07T07:04:17.294Z,21.33
2023-03-07T07:06:45.996Z,20.80
2023-03-07T07:09:15.481Z,21.43
2023-03-07T07:11:44.110Z,24.07
2023-03-07T07:14:19.161Z,20.93
2023-03-07T07:16:48.586Z,20.87
2023-03-07T07:19:17.409Z,21.80
2023-03-07T07:21:46.125Z,21.77
2023-03-07T07:24:15.266Z,24.37
2023-03-07T07:26:44.546Z,21.00
2023-03-07T07:29:13.714Z,23.17
2023-03-07T07:31:44.171Z,22.57
2023-03-07T07:34:13.526Z,21.27
2023-03-07T07:36:42.265Z,22.13
2023-03-07T07:39:12.127Z,26.20
2023-03-07T07:41:44.525Z,23.20
2023-03-07T07:44:14.101Z,23.03
2023-03-07T07:46:56.341Z,29.57
2023-03-07T07:49:25.216Z,18.37
2023-03-07T07:51:53.882Z,27.33
2023-03-07T07:54:24.682Z,22.80
2023-03-07T07:56:53.946Z,19.53
2023-03-07T07:59:23.860Z,20.87
2023-03-07T08:01:53.084Z,21.53
2023-03-07T08:04:25.928Z,23.03
2023-03-07T08:06:54.870Z,17.07
2023-03-07T08:09:24.488Z,21.07
2023-03-07T08:11:53.353Z,22.23
2023-03-07T08:14:22.107Z,23.20
2023-03-07T08:16:50.815Z,21.47
2023-03-07T08:19:19.505Z,17.80
2023-03-07T08:21:49.592Z,22.23
2023-03-07T08:24:18.527Z,17.13
2023-03-07T08:26:47.139Z,16.43
2023-03-07T08:29:15.890Z,20.10
2023-03-07T08:31:45.995Z,21.33
2023-03-07T08:34:15.735Z,16.83
2023-03-07T08:36:44.555Z,18.57
2023-03-07T08:39:15.042Z,20.37
2023-03-07T08:41:43.694Z,17.30
2023-03-07T08:44:12.356Z,16.57
2023-03-07T08:46:41.393Z,16.07
2023-03-07T08:49:10.222Z,16.90
2023-03-07T08:51:39.036Z,16.67
2023-03-07T08:54:07.899Z,15.70
2023-03-07T08:56:44.397Z,22.27
2023-03-07T08:59:26.267Z,16.53
2023-03-07T09:01:55.121Z,16.43
2023-03-07T09:04:24.011Z,19.80
2023-03-07T09:06:52.893Z,16.83
2023-03-07T09:09:21.785Z,12.83
2023-03-07T09:11:51.903Z,14.97
2023-03-07T09:14:20.705Z,19.20
2023-03-07T09:16:49.566Z,17.73
2023-03-07T09:19:18.410Z,16.97
2023-03-07T09:21:47.224Z,20.40
2023-03-07T09:24:15.836Z,13.47
2023-03-07T09:26:44.705Z,12.37
2023-03-07T09:29:14.935Z,18.27
2023-03-07T09:31:44.423Z,16.63
2023-03-07T09:34:13.245Z,13.27
2023-03-07T09:36:41.969Z,13.47
2023-03-07T09:39:14.593Z,14.00
2023-03-07T09:42:01.779Z,13.83
2023-03-07T09:44:58.293Z,20.10
2023-03-07T09:48:12.458Z,12.03
2023-03-07T09:50:48.572Z,23.17
2023-03-07T09:53:24.429Z,16.10
2023-03-07T09:55:56.200Z,14.80
2023-03-07T09:58:27.018Z,13.03
2023-03-07T10:01:00.958Z,11.63
2023-03-07T10:03:40.358Z,15.37
2023-03-07T10:06:15.595Z,15.23
2023-03-07T10:08:44.646Z,14.00
2023-03-07T10:11:24.844Z,14.43
2023-03-07T10:14:05.694Z,13.37
2023-03-07T10:16:46.563Z,12.83
2023-03-07T10:19:21.620Z,12.70
2023-03-07T10:21:59.718Z,15.40
2023-03-07T10:24:44.763Z,11.97
2023-03-07T10:27:14.626Z,11.77
2023-03-07T10:29:48.424Z,12.50
2023-03-07T10:32:27.554Z,12.77
2023-03-07T10:35:01.436Z,13.63
2023-03-07T10:37:43.951Z,11.93
2023-03-07T10:40:21.290Z,11.53
2023-03-07T10:42:50.017Z,12.33
2023-03-07T10:45:19.071Z,12.90
2023-03-07T10:47:49.402Z,12.67
2023-03-07T10:50:32.846Z,16.50
2023-03-07T10:53:03.626Z,10.00
2023-03-07T10:55:34.499Z,11.43
2023-03-07T10:58:31.071Z,12.90
2023-03-07T11:01:13.577Z,11.63
2023-03-07T11:03:54.729Z,11.93
2023-03-07T11:06:40.567Z,11.60
2023-03-07T11:09:20.295Z,11.90
2023-03-07T11:11:51.655Z,10.60
2023-03-07T11:14:21.990Z,8.23
2023-03-07T11:16:56.181Z,12.67
2023-03-07T11:19:33.249Z,11.47
2023-03-07T11:22:04.382Z,21.50
2023-03-07T11:24:38.042Z,11.17
2023-03-07T11:27:07.502Z,9.80
2023-03-07T11:29:36.157Z,10.00
2023-03-07T11:32:14.191Z,10.97
2023-03-07T11:34:50.616Z,10.83
2023-03-07T11:37:29.412Z,9.07
2023-03-07T11:40:23.586Z,11.10
2023-03-07T11:43:00.629Z,7.77
2023-03-07T11:45:38.434Z,10.97
2023-03-07T11:48:16.522Z,11.80
2023-03-07T11:50:55.208Z,12.43
2023-03-07T11:53:31.501Z,11.67
2023-03-07T11:56:22.578Z,8.50
2023-03-07T11:59:13.733Z,9.00
2023-03-07T12:01:49.268Z,9.83
2023-03-07T12:04:46.610Z,9.90
2023-03-07T12:07:38.852Z,8.33
2023-03-07T12:10:18.090Z,8.97
2023-03-07T12:12:57.095Z,9.27
2023-03-07T12:15:33.213Z,8.70
2023-03-07T12:18:25.819Z,8.17
2023-03-07T12:21:06.689Z,11.27
2023-03-07T12:23:42.776Z,10.70
2023-03-07T12:26:17.123Z,11.13
2023-03-07T12:28:51.159Z,7.53
2023-03-07T12:31:25.980Z,9.50
2023-03-07T12:34:02.997Z,10.17
2023-03-07T12:36:37.833Z,9.23
2023-03-07T12:39:17.414Z,8.97
2023-03-07T12:42:03.468Z,13.77
2023-03-07T12:44:37.603Z,9.17
2023-03-07T12:47:14.406Z,7.07
2023-03-07T12:49:50.506Z,8.87
2023-03-07T12:52:31.652Z,10.13
2023-03-07T12:55:08.818Z,13.23
2023-03-07T12:57:43.882Z,10.97
2023-03-07T13:00:18.393Z,8.53
2023-03-07T13:02:54.585Z,12.30
2023-03-07T13:05:24.069Z,6.57
2023-03-07T13:07:53.679Z,9.97
2023-03-07T13:10:25.854Z,8.43
2023-03-07T13:12:54.611Z,7.83
2023-03-07T13:15:56.743Z,8.03
2023-03-07T13:18:30.392Z,7.00
2023-03-07T13:21:32.870Z,7.13
2023-03-07T13:24:33.398Z,8.90
2023-03-07T13:27:04.112Z,11.87
2023-03-07T13:30:07.425Z,7.90
2023-03-07T13:32:59.104Z,7.47
2023-03-07T13:35:56.378Z,7.43
2023-03-07T13:38:36.229Z,7.73
2023-03-07T13:41:05.816Z,7.43
2023-03-07T13:43:56.652Z,7.83
2023-03-07T13:46:55.750Z,13.40
2023-03-07T13:49:44.627Z,9.00
2023-03-07T13:52:34.554Z,7.27
2023-03-07T13:55:06.042Z,9.83
2023-03-07T13:57:41.904Z,7.20
2023-03-07T14:00:38.386Z,6.63
2023-03-07T14:03:27.622Z,9.37
2023-03-07T14:05:58.381Z,8.20
2023-03-07T14:08:33.113Z,7.73
2023-03-07T14:11:02.138Z,8.63
2023-03-07T14:13:58.053Z,8.07
2023-03-07T14:16:47.276Z,7.40
2023-03-07T14:19:28.584Z,9.30
2023-03-07T14:22:04.079Z,8.17
2023-03-07T14:24:51.871Z,9.57
2023-03-07T14:27:20.635Z,8.50
2023-03-07T14:29:52.089Z,8.43
2023-03-07T14:32:26.457Z,11.67
2023-03-07T14:34:55.236Z,7.07
2023-03-07T14:37:26.635Z,8.27
2023-03-07T14:40:29.151Z,13.23
2023-03-07T14:43:09.943Z,10.67
2023-03-07T14:45:42.145Z,9.17
2023-03-07T14:48:36.919Z,9.13
2023-03-07T14:51:13.260Z,12.07
2023-03-07T14:53:42.991Z,9.47
2023-03-07T14:56:12.802Z,14.90
2023-03-07T14:58:49.505Z,10.87
2023-03-07T15:01:20.023Z,9.03
2023-03-07T15:03:52.478Z,9.93
2023-03-07T15:06:23.333Z,9.13
2023-03-07T15:08:52.443Z,7.43
2023-03-07T15:11:30.129Z,11.27
2023-03-07T15:14:01.273Z,8.10
2023-03-07T15:16:33.264Z,11.47
2023-03-07T15:19:07.334Z,10.43
2023-03-07T15:21:41.735Z,9.47
2023-03-07T15:24:19.004Z,7.87
2023-03-07T15:26:52.334Z,9.13
2023-03-07T15:29:23.563Z,9.97
2023-03-07T15:31:54.161Z,9.27
2023-03-07T15:34:28.001Z,8.70
2023-03-07T15:36:56.736Z,12.63
2023-03-07T15:39:35.769Z,9.40
2023-03-07T15:42:06.809Z,11.10
2023-03-07T15:44:36.451Z,11.17
2023-03-07T15:47:14.213Z,9.13
2023-03-07T15:49:47.321Z,10.13
2023-03-07T15:52:30.610Z,8.20
2023-03-07T15:55:01.122Z,11.50
2023-03-07T15:57:33.762Z,9.60
2023-03-07T16:00:05.619Z,10.27
2023-03-07T16:02:43.977Z,9.10
2023-03-07T16:05:37.719Z,9.33
2023-03-07T16:08:17.089Z,12.40
2023-03-07T16:10:53.479Z,11.60
2023-03-07T16:13:24.812Z,8.67
2023-03-07T16:16:04.553Z,9.10
2023-03-07T16:18:33.955Z,9.97
2023-03-07T16:21:04.368Z,8.53
2023-03-07T16:23:34.260Z,10.90
2023-03-07T16:26:06.136Z,11.80
2023-03-07T16:28:35.651Z,10.37
2023-03-07T16:31:04.461Z,9.17
2023-03-07T16:33:33.442Z,9.80
2023-03-07T16:36:03.712Z,9.20
2023-03-07T16:38:32.391Z,10.40
2023-03-07T16:41:04.574Z,10.20
2023-03-07T16:43:35.478Z,10.73
2023-03-07T16:46:05.645Z,8.43
2023-03-07T16:48:35.005Z,11.20
2023-03-07T16:51:05.436Z,9.43
2023-03-07T16:53:34.159Z,12.83
2023-03-07T16:56:02.821Z,10.57
2023-03-07T16:58:35.124Z,10.47
2023-03-07T17:01:03.894Z,11.43
2023-03-07T17:03:32.799Z,16.83
2023-03-07T17:06:01.377Z,12.63
2023-03-07T17:08:31.509Z,11.30
2023-03-07T17:11:00.287Z,16.57
2023-03-07T17:13:28.990Z,11.63
2023-03-07T17:15:58.024Z,10.83
2023-03-07T17:18:29.630Z,14.90
2023-03-07T17:20:58.207Z,12.10
2023-03-07T17:23:26.899Z,15.90
2023-03-07T17:25:57.097Z,10.00
2023-03-07T17:28:26.024Z,10.63
2023-03-07T17:30:55.669Z,8.93
2023-03-07T17:33:26.713Z,9.87
2023-03-07T17:35:58.256Z,11.53
2023-03-07T17:38:26.931Z,9.03
2023-03-07T17:40:57.721Z,8.43
2023-03-07T17:43:26.306Z,8.60
2023-03-07T17:45:55.068Z,9.40
2023-03-07T17:48:23.729Z,12.13
2023-03-07T17:50:52.350Z,10.20
2023-03-07T17:53:21.115Z,10.30
2023-03-07T17:55:49.654Z,8.87
2023-03-07T17:58:20.287Z,12.03
2023-03-07T18:00:48.955Z,11.57
2023-03-07T18:03:17.513Z,9.80
2023-03-07T18:05:46.060Z,12.30
2023-03-07T18:08:14.615Z,9.10
2023-03-07T18:10:43.506Z,10.00
2023-03-07T18:13:14.997Z,10.33
2023-03-07T18:15:48.645Z,10.53
2023-03-07T18:18:17.561Z,9.23
2023-03-07T18:20:46.126Z,10.17
2023-03-07T18:23:14.643Z,8.77
2023-03-07T18:25:43.193Z,9.10
2023-03-07T18:28:12.797Z,11.20
2023-03-07T18:30:41.475Z,11.63
2023-03-07T18:33:11.572Z,12.47
2023-03-07T18:35:40.405Z,10.30
2023-03-07T18:38:09.382Z,9.97
2023-03-07T18:40:37.962Z,11.27
2023-03-07T18:43:06.712Z,10.10
2023-03-07T18:45:35.361Z,14.03
2023-03-07T18:48:03.896Z,11.07
2023-03-07T18:50:33.999Z,12.53
2023-03-07T18:53:02.655Z,10.23
2023-03-07T18:55:33.154Z,10.20
2023-03-07T18:58:01.853Z,11.30
2023-03-07T19:00:30.578Z,12.23
2023-03-07T19:02:59.387Z,13.20
2023-03-07T19:05:28.115Z,10.63
2023-03-07T19:07:58.193Z,10.47
2023-03-07T19:10:26.819Z,10.63
2023-03-07T19:12:55.541Z,11.50
2023-03-07T19:15:24.247Z,11.87
2023-03-07T19:17:52.838Z,12.23
2023-03-07T19:20:21.693Z,11.33
2023-03-07T19:22:53.650Z,12.83
2023-03-07T19:25:23.733Z,9.93
2023-03-07T19:27:52.388Z,11.20
2023-03-07T19:30:21.284Z,11.60
2023-03-07T19:32:50.189Z,10.83
2023-03-07T19:35:19.000Z,13.33
2023-03-07T19:37:47.798Z,12.83
2023-03-07T19:40:16.478Z,10.77
2023-03-07T19:42:46.656Z,9.50
2023-03-07T19:45:15.239Z,9.80
2023-03-07T19:47:43.873Z,14.30
2023-03-07T19:50:13.435Z,10.20
2023-03-07T19:52:42.093Z,11.07
2023-03-07T19:55:11.246Z,10.60
2023-03-07T19:57:40.332Z,19.53
2023-03-07T20:00:12.107Z,16.00
2023-03-07T20:02:40.690Z,12.23
2023-03-07T20:05:09.905Z,13.60
2023-03-07T20:07:38.476Z,12.07
2023-03-07T20:10:07.951Z,10.57
2023-03-07T20:12:36.719Z,11.07
2023-03-07T20:15:05.760Z,12.43
2023-03-07T20:17:35.778Z,10.43
2023-03-07T20:20:08.007Z,11.10
2023-03-07T20:22:36.717Z,11.33
2023-03-07T20:25:08.076Z,13.37
2023-03-07T20:27:36.673Z,14.00
2023-03-07T20:30:06.452Z,12.77
2023-03-07T20:32:36.584Z,10.40
2023-03-07T20:35:05.522Z,10.90
2023-03-07T20:37:34.919Z,10.60
2023-03-07T20:40:05.327Z,9.10
2023-03-07T20:42:34.114Z,14.37
2023-03-07T20:45:02.741Z,11.83
2023-03-07T20:47:32.553Z,9.20
2023-03-07T20:50:02.636Z,10.83
2023-03-07T20:52:31.125Z,10.20
2023-03-07T20:55:00.877Z,9.40
2023-03-07T20:57:29.527Z,12.20
2023-03-07T20:59:58.372Z,11.30
2023-03-07T21:02:27.056Z,13.00
2023-03-07T21:04:55.781Z,11.17
2023-03-07T21:07:25.920Z,12.20
2023-03-07T21:09:54.610Z,12.77
2023-03-07T21:12:23.188Z,10.33
2023-03-07T21:14:51.740Z,8.97
2023-03-07T21:17:20.413Z,11.23
2023-03-07T21:19:48.947Z,10.10
2023-03-07T21:22:17.701Z,11.73
2023-03-07T21:24:47.927Z,8.67
2023-03-07T21:27:16.589Z,9.83
2023-03-07T21:29:45.190Z,9.70
2023-03-07T21:32:14.061Z,11.93
2023-03-07T21:34:42.693Z,9.43
2023-03-07T21:37:11.471Z,11.80
2023-03-07T21:39:40.253Z,11.90
2023-03-07T21:42:10.340Z,12.37
2023-03-07T21:44:39.174Z,10.43
2023-03-07T21:47:07.809Z,11.00
2023-03-07T21:49:36.506Z,10.60
2023-03-07T21:52:05.183Z,8.53
2023-03-07T21:54:34.298Z,10.00
2023-03-07T21:57:04.214Z,9.63
2023-03-07T21:59:34.837Z,11.20
2023-03-07T22:02:03.530Z,10.10
2023-03-07T22:04:32.234Z,9.40
2023-03-07T22:07:00.914Z,9.30
2023-03-07T22:09:29.629Z,12.50
2023-03-07T22:11:58.185Z,11.07
2023-03-07T22:14:26.847Z,11.60
2023-03-07T22:16:57.088Z,10.10
2023-03-07T22:19:25.821Z,14.23
2023-03-07T22:21:54.510Z,11.43
2023-03-07T22:24:23.240Z,10.03
2023-03-07T22:26:52.084Z,11.63
2023-03-07T22:29:20.894Z,9.40
2023-03-07T22:31:49.384Z,12.00
2023-03-07T22:34:19.705Z,10.53
2023-03-07T22:36:48.217Z,8.97
2023-03-07T22:39:17.192Z,10.37
2023-03-07T22:41:45.797Z,8.90
2023-03-07T22:44:15.445Z,10.73
2023-03-07T22:46:45.128Z,9.37
2023-03-07T22:49:14.534Z,10.23
2023-03-07T22:51:44.662Z,9.20
2023-03-07T22:54:13.670Z,9.97
2023-03-07T22:56:42.397Z,10.73
2023-03-07T22:59:11.452Z,9.13
2023-03-07T23:01:40.525Z,9.70
2023-03-07T23:04:10.236Z,10.03
2023-03-07T23:06:39.267Z,14.50
2023-03-07T23:09:10.246Z,12.57
2023-03-07T23:11:40.009Z,11.83
2023-03-07T23:14:08.521Z,9.73
2023-03-07T23:16:39.413Z,10.17
2023-03-07T23:19:07.960Z,12.10
2023-03-07T23:21:38.666Z,10.87
2023-03-07T23:24:07.716Z,10.17
2023-03-07T23:26:39.532Z,13.03
2023-03-07T23:29:09.962Z,9.97
2023-03-07T23:31:40.642Z,9.50
2023-03-07T23:34:15.318Z,9.60
2023-03-07T23:36:44.335Z,9.67
2023-03-07T23:39:13.492Z,9.43
2023-03-07T23:41:43.618Z,10.77
2023-03-07T23:44:13.124Z,11.73
2023-03-07T23:46:41.840Z,10.60
2023-03-07T23:49:11.799Z,10.10
2023-03-07T23:51:40.436Z,12.13
2023-03-07T23:54:09.251Z,10.63
2023-03-07T23:56:37.981Z,12.10
2023-03-07T23:59:11.199Z,12.07
